Weed Airport Atmospheric Data: 05/15/2019 Summary  Detailed Graphs  Station List

  Temperature     Wind Precipitation Visibility
Timestamp Air Wet
Bulb
Dew-
point
24-hr
Max
24-hr
Min
Relative
Humidity
Atmospheric
Pressure
Avg
Speed
Avg
Dir
Spot
Speed
Spot
Dir
Max
Speed
Max
Dir
  Rate Situation Start End 1 hr 3 hr 6 hr 12 hr 24 hr   Situation
Date Time °F °F °F °F °F % in Hg mph ° mph ° mph ° Y/N in/hr text Date Time Date Time in in in in in mi text
05/15/2019 12:00 AM 57.56 49.10 41.00 65.48 56.66 53.0 Not Reported 17.45 SE 17.67 SE 21.25 SE No 0.000 No Precipitation     0.000 0.000 0.000 0.000 0.000 Not Reported Not Reported
05/15/2019 12:15 AM 57.38 49.28 41.36 65.48 56.66 54.0 Not Reported 16.11 SE 14.99 SE 20.13 SE No 0.000 No Precipitation     0.000 0.000 0.000 0.000 0.000 Not Reported Not Reported
05/15/2019 12:30 AM 57.56 49.28 41.36 65.48 56.66 54.0 Not Reported 15.88 S 17.00 S 19.46 SE No 0.000 No Precipitation     0.000 0.000 0.000 0.000 0.000 Not Reported Not Reported
05/15/2019 12:45 AM 57.20 49.28 41.54 65.48 56.66 55.0 Not Reported 14.54 SE 16.55 S 19.69 SE No 0.000 No Precipitation     0.000 0.000 0.000 0.000 0.000 Not Reported Not Reported
05/15/2019 01:00 AM 56.66 49.28 42.26 65.48 56.66 58.0 Not Reported 9.40 S 7.83 S 17.22 S No 0.000 No Precipitation     0.000 0.000 0.000 0.000 0.000 Not Reported Not Reported
05/15/2019 01:15 AM 56.48 49.10 41.90 65.48 56.48 57.0 Not Reported 7.83 S 6.49 S 8.95 S No 0.000 No Precipitation     0.000 0.000 0.000 0.000 0.000 Not Reported Not Reported
05/15/2019 01:30 AM 56.48 49.10 42.26 65.48 56.30 58.0 Not Reported 4.25 S 3.80 S 7.16 S No 0.000 No Precipitation     0.000 0.000 0.000 0.000 0.000 Not Reported Not Reported
05/15/2019 01:45 AM 56.84 49.10 41.54 65.48 56.30 56.0 Not Reported 4.25 SW 4.25 SW 6.93 SW No 0.000 No Precipitation     0.000 0.000 0.000 0.000 0.000 Not Reported Not Reported
05/15/2019 02:00 AM 56.84 49.10 41.90 65.48 56.30 56.0 Not Reported 8.95 S 8.95 S 9.40 S No 0.000 No Precipitation     0.000 0.000 0.000 0.000 0.000 Not Reported Not Reported
05/15/2019 02:15 AM 56.84 49.28 41.90 65.48 56.30 57.0 Not Reported 9.84 S 11.18 S 11.41 S No 0.000 No Precipitation     0.000 0.000 0.000 0.000 0.000 Not Reported Not Reported
05/15/2019 02:30 AM 56.48 49.10 42.26 65.48 56.30 58.0 Not Reported 8.28 S 8.05 S 11.18 S No 0.000 No Precipitation     0.000 0.000 0.000 0.000 0.000 Not Reported Not Reported
05/15/2019 02:45 AM 56.66 49.10 42.08 65.48 56.30 58.0 Not Reported 6.04 S 7.16 SW 10.51 S No 0.000 No Precipitation     0.000 0.000 0.000 0.000 0.000 Not Reported Not Reported
05/15/2019 03:00 AM 57.20 49.46 41.54 65.48 56.30 55.0 Not Reported 12.30 S 12.75 SE 14.32 S No 0.000 No Precipitation     0.000 0.000 0.000 0.000 0.000 Not Reported Not Reported
05/15/2019 03:15 AM 56.84 49.10 41.90 65.48 56.30 57.0 Not Reported 8.95 S 6.26 S 11.18 S No 0.000 No Precipitation     0.000 0.000 0.000 0.000 0.000 Not Reported Not Reported
05/15/2019 03:30 AM 56.48 49.10 42.26 65.48 56.30 58.0 Not Reported 6.49 S 5.59 S 9.62 S No 0.000 No Precipitation     0.000 0.000 0.000 0.000 0.000 Not Reported Not Reported
05/15/2019 03:45 AM 57.92 49.46 41.54 65.48 56.30 54.0 Not Reported 17.22 SE 19.46 S 19.24 SE No 0.000 No Precipitation     0.000 0.000 0.000 0.000 0.000 Not Reported Not Reported
05/15/2019 04:00 AM 57.38 49.28 41.54 65.48 56.30 55.0 Not Reported 15.66 SE 15.66 SE 19.46 SE No 0.000 No Precipitation     0.000 0.000 0.000 0.000 0.000 Not Reported Not Reported
05/15/2019 04:15 AM 57.20 49.28 41.72 65.48 56.30 56.0 Not Reported 13.87 SE 20.80 SE 18.34 SE No 0.000 No Precipitation     0.000 0.000 0.000 0.000 0.000 Not Reported Not Reported
05/15/2019 04:30 AM 56.84 49.28 42.08 65.48 56.30 57.0 Not Reported 16.11 SE 14.76 SE 19.01 SE No 0.000 No Precipitation     0.000 0.000 0.000 0.000 0.000 Not Reported Not Reported
05/15/2019 04:45 AM 56.66 49.28 42.26 65.48 56.30 58.0 Not Reported 12.97 SE 14.99 SE 21.25 SE No 0.000 No Precipitation     0.000 0.000 0.000 0.000 0.000 Not Reported Not Reported
05/15/2019 05:00 AM 56.30 49.10 42.44 65.48 56.30 59.0 Not Reported 13.87 SE 13.42 SE 18.12 SE No 0.000 No Precipitation     0.000 0.000 0.000 0.000 0.000 Not Reported Not Reported
05/15/2019 05:15 AM 56.12 49.28 42.80 65.48 55.94 61.0 Not Reported 17.00 SE 15.88 SE 19.01 SE No 0.000 No Precipitation     0.000 0.000 0.000 0.000 0.000 Not Reported Not Reported
05/15/2019 05:30 AM 54.68 49.28 44.24 65.48 54.68 67.0 Not Reported 13.20 SE 12.53 SE 19.46 SE No 0.000 No Precipitation     0.000 0.000 0.000 0.000 0.000 Not Reported Not Reported
05/15/2019 05:45 AM 54.32 49.10 44.24 65.48 54.32 68.0 Not Reported 12.75 SE 12.75 SE 18.57 SE No 0.000 No Precipitation     0.000 0.000 0.000 0.000 0.000 Not Reported Not Reported
05/15/2019 06:00 AM 53.96 49.10 44.78 65.48 53.96 70.0 Not Reported 12.75 SE 10.74 SE 16.55 SE No 0.000 No Precipitation     0.000 0.000 0.000 0.000 0.000 Not Reported Not Reported
05/15/2019 06:15 AM 53.60 48.92 44.78 65.48 53.24 71.0 Not Reported 14.76 SE 15.21 SE 15.21 SE No 0.000 No Precipitation     0.000 0.000 0.000 0.000 0.000 Not Reported Not Reported
05/15/2019 06:30 AM 53.60 48.74 44.42 65.48 53.06 70.0 Not Reported 12.30 SE 12.75 SE 14.09 SE No 0.000 No Precipitation     0.000 0.000 0.000 0.000 0.000 Not Reported Not Reported
05/15/2019 06:45 AM 53.78 48.56 43.70 65.48 53.06 68.0 Not Reported 15.21 SE 13.87 SE 18.79 SE No 0.000 No Precipitation     0.000 0.000 0.000 0.000 0.000 Not Reported Not Reported
05/15/2019 07:00 AM 53.42 48.38 43.88 65.48 53.06 69.0 Not Reported 17.67 SE 19.46 SE 20.58 SE No 0.000 No Precipitation     0.000 0.000 0.000 0.000 0.000 Not Reported Not Reported
05/15/2019 07:15 AM 52.88 48.74 44.78 65.48 52.88 73.0 Not Reported 14.09 SE 14.32 SE 19.46 SE No 0.000 No Precipitation     0.000 0.000 0.000 0.000 0.000 Not Reported Not Reported
05/15/2019 07:30 AM 53.06 48.56 44.42 65.48 52.70 72.0 Not Reported 13.20 SE 11.18 SE 18.34 SE No 0.000 No Precipitation     0.000 0.000 0.000 0.000 0.000 Not Reported Not Reported
05/15/2019 07:45 AM 52.88 48.56 44.60 65.48 52.70 73.0 Not Reported 14.99 SE 13.87 SE 15.88 SE No 0.000 No Precipitation     0.000 0.000 0.000 0.000 0.000 Not Reported Not Reported
05/15/2019 08:00 AM 53.78 48.56 43.88 65.48 52.70 69.0 Not Reported 12.97 S 14.09 SE 17.90 S No 0.000 No Precipitation     0.000 0.000 0.000 0.000 0.000 Not Reported Not Reported
05/15/2019 08:15 AM 53.24 48.56 44.24 65.48 52.70 71.0 Not Reported 11.41 SE 15.21 S 16.78 S No 0.000 No Precipitation     0.000 0.000 0.000 0.000 0.000 Not Reported Not Reported
05/15/2019 08:30 AM 53.24 48.56 44.24 65.48 52.70 71.0 Not Reported 13.87 SE 13.42 SE 16.33 SE No 0.000 No Precipitation     0.000 0.000 0.000 0.000 0.000 Not Reported Not Reported
05/15/2019 08:45 AM 53.42 48.38 43.70 65.48 52.70 69.0 Not Reported 12.08 S 11.63 SE 17.22 S No 0.000 No Precipitation     0.000 0.000 0.000 0.000 0.000 Not Reported Not Reported
05/15/2019 09:00 AM 52.70 48.38 44.60 65.48 52.70 73.0 Not Reported 13.87 S 14.32 S 15.21 SE No 0.000 No Precipitation     0.000 0.000 0.000 0.000 0.000 Not Reported Not Reported
05/15/2019 09:15 AM 52.16 48.56 45.50 65.48 51.98 78.0 Not Reported 12.08 SE 11.86 S 13.42 SE No 0.000 No Precipitation     0.000 0.000 0.000 0.000 0.000 Not Reported Not Reported
05/15/2019 09:30 AM 52.16 48.92 46.04 65.48 51.98 79.0 Not Reported 9.84 SE 8.50 SE 14.54 SE No 0.000 No Precipitation 05/15/2019 01:20 AM 05/15/2019 01:25 AM 0.004 0.004 0.004 0.004 0.004 Not Reported Not Reported
05/15/2019 09:45 AM 51.80 49.10 46.40 65.48 51.80 81.0 Not Reported 10.07 S 11.63 SE 11.86 SE Yes 0.043 Rain Slight 05/15/2019 01:38 AM   0.016 0.016 0.016 0.016 0.016 Not Reported Not Reported
05/15/2019 10:00 AM 51.44 48.56 45.50 65.48 51.44 80.0 Not Reported 20.36 SE 19.01 S 23.04 SE Yes 0.043 Rain Slight 05/15/2019 01:55 AM   0.028 0.028 0.028 0.028 0.028 Not Reported Not Reported
05/15/2019 10:15 AM 51.80 48.74 46.04 65.48 51.08 80.0 Not Reported 19.46 SE 21.70 SE 24.16 SE No 0.000 No Precipitation 05/15/2019 01:55 AM 05/15/2019 02:09 AM 0.035 0.035 0.035 0.035 0.035 Not Reported Not Reported
05/15/2019 10:30 AM 51.62 48.56 46.04 65.48 51.08 81.0 Not Reported 22.82 SE 19.91 SE 25.05 SE No 0.000 No Precipitation 05/15/2019 01:55 AM 05/15/2019 02:09 AM 0.031 0.035 0.035 0.035 0.035 Not Reported Not Reported
05/15/2019 10:45 AM 50.90 48.38 45.86 65.48 50.72 82.0 Not Reported 24.83 SE 23.04 SE 30.65 SE No 0.000 No Precipitation 05/15/2019 01:55 AM 05/15/2019 02:09 AM 0.020 0.035 0.035 0.035 0.035 Not Reported Not Reported
05/15/2019 11:00 AM 51.44 48.74 46.22 65.48 50.72 82.0 Not Reported 18.34 SE 19.24 SE 24.61 SE No 0.000 No Precipitation 05/15/2019 01:55 AM 05/15/2019 02:09 AM 0.008 0.035 0.035 0.035 0.035 Not Reported Not Reported
05/15/2019 11:15 AM 51.80 48.56 45.86 65.48 50.72 79.0 Not Reported 21.03 SE 21.92 SE 27.51 SE No 0.000 No Precipitation 05/15/2019 03:03 AM 05/15/2019 03:08 AM 0.004 0.039 0.039 0.039 0.039 Not Reported Not Reported
05/15/2019 11:30 AM 51.80 48.38 45.50 65.48 50.72 79.0 Not Reported 21.92 SE 22.82 SE 25.72 SE No 0.000 No Precipitation 05/15/2019 03:03 AM 05/15/2019 03:08 AM 0.004 0.039 0.039 0.039 0.039 Not Reported Not Reported
05/15/2019 11:45 AM 51.44 48.38 45.68 65.48 50.72 80.0 Not Reported 25.05 SE 22.37 SE 25.28 SE No 0.000 No Precipitation 05/15/2019 03:03 AM 05/15/2019 03:08 AM 0.004 0.039 0.039 0.039 0.039 Not Reported Not Reported
05/15/2019 12:00 PM 51.44 48.38 45.68 65.48 50.72 80.0 Not Reported 27.51 SE 27.07 SE 30.42 SE No 0.000 No Precipitation 05/15/2019 03:03 AM 05/15/2019 03:08 AM 0.004 0.039 0.039 0.039 0.039 Not Reported Not Reported
05/15/2019 12:15 PM 52.16 49.28 46.58 65.48 50.72 81.0 Not Reported 28.41 SE 25.72 SE 34.00 SE No 0.000 No Precipitation 05/15/2019 03:03 AM 05/15/2019 03:08 AM 0.000 0.039 0.039 0.039 0.039 Not Reported Not Reported
05/15/2019 12:30 PM 52.70 49.46 46.76 65.48 50.72 80.0 Not Reported 28.63 SE 24.83 SE 32.66 SE No 0.000 No Precipitation 05/15/2019 03:03 AM 05/15/2019 03:08 AM 0.000 0.035 0.039 0.039 0.039 Not Reported Not Reported
05/15/2019 12:45 PM 51.80 48.74 46.04 65.48 50.72 80.0 Not Reported 31.99 SE 26.62 S 37.13 SE No 0.000 No Precipitation 05/15/2019 03:03 AM 05/15/2019 03:08 AM 0.000 0.020 0.039 0.039 0.039 Not Reported Not Reported
05/15/2019 01:00 PM 52.16 48.74 45.68 65.48 50.72 78.0 Not Reported 30.42 SE 29.75 SE 35.79 SE No 0.000 No Precipitation 05/15/2019 03:03 AM 05/15/2019 03:08 AM 0.000 0.008 0.039 0.039 0.039 Not Reported Not Reported
05/15/2019 01:15 PM 51.98 48.56 45.50 65.48 50.72 78.0 Not Reported 26.84 SE 27.29 SE 35.57 SE No 0.000 No Precipitation 05/15/2019 03:03 AM 05/15/2019 03:08 AM 0.000 0.004 0.039 0.039 0.039 Not Reported Not Reported
05/15/2019 01:30 PM 52.16 48.56 45.32 65.48 50.72 77.0 Not Reported 25.50 SE 26.17 SE 32.21 SE No 0.000 No Precipitation 05/15/2019 03:03 AM 05/15/2019 03:08 AM 0.000 0.004 0.039 0.039 0.039 Not Reported Not Reported
05/15/2019 01:45 PM 51.80 48.56 45.50 65.48 50.72 78.0 Not Reported 30.87 SE 31.99 S 34.23 SE No 0.000 No Precipitation 05/15/2019 03:03 AM 05/15/2019 03:08 AM 0.000 0.004 0.039 0.039 0.039 Not Reported Not Reported
05/15/2019 02:00 PM 51.98 48.38 45.14 65.48 50.72 77.0 Not Reported 27.51 SE 24.61 SE 32.88 SE Yes 0.043 Rain Slight 05/15/2019 05:59 AM   0.004 0.008 0.039 0.039 0.039 Not Reported Not Reported
05/15/2019 02:15 PM 51.98 48.20 44.60 65.48 50.72 75.0 Not Reported 27.51 SE 34.90 SE 34.45 SE No 0.000 No Precipitation 05/15/2019 05:59 AM 05/15/2019 06:04 AM 0.004 0.004 0.039 0.039 0.039 Not Reported Not Reported
05/15/2019 02:30 PM 51.80 48.38 45.14 65.48 50.72 77.0 Not Reported 31.99 SE 31.09 SE 35.34 SE No 0.000 No Precipitation 05/15/2019 05:59 AM 05/15/2019 06:04 AM 0.004 0.004 0.039 0.039 0.039 Not Reported Not Reported
05/15/2019 02:45 PM 51.80 48.20 45.14 65.48 50.72 78.0 Not Reported 27.29 SE 31.76 SE 34.00 SE No 0.000 No Precipitation 05/15/2019 05:59 AM 05/15/2019 06:04 AM 0.004 0.004 0.039 0.039 0.039 Not Reported Not Reported
05/15/2019 03:00 PM 52.16 48.56 45.50 65.48 50.72 77.0 Not Reported 30.42 SE 31.54 SE 32.66 SE No 0.000 No Precipitation 05/15/2019 05:59 AM 05/15/2019 06:04 AM 0.000 0.004 0.039 0.039 0.039 Not Reported Not Reported
05/15/2019 03:15 PM 52.34 48.74 45.68 65.48 50.72 77.0 Not Reported 29.53 SE 29.75 SE 34.00 SE No 0.000 No Precipitation 05/15/2019 05:59 AM 05/15/2019 06:04 AM 0.000 0.004 0.039 0.039 0.039 Not Reported Not Reported
05/15/2019 03:30 PM 52.70 49.28 46.40 65.30 50.72 78.0 Not Reported 27.29 SE 22.82 SE 34.67 SE No 0.000 No Precipitation 05/15/2019 05:59 AM 05/15/2019 06:04 AM 0.000 0.004 0.039 0.039 0.039 Not Reported Not Reported
05/15/2019 03:45 PM 52.88 49.28 45.50 64.76 50.72 75.0 Not Reported 28.86 SE 35.12 SE 34.67 SE No 0.000 No Precipitation 05/15/2019 05:59 AM 05/15/2019 06:04 AM 0.000 0.004 0.028 0.039 0.039 Not Reported Not Reported
05/15/2019 04:00 PM 52.70 49.10 46.04 64.22 50.72 77.0 Not Reported 32.44 SE 32.88 SE 36.91 SE No 0.000 No Precipitation 05/15/2019 05:59 AM 05/15/2019 06:04 AM 0.000 0.004 0.016 0.039 0.039 Not Reported Not Reported
05/15/2019 04:15 PM 53.06 48.74 44.96 64.22 50.72 74.0 Not Reported 31.76 SE 33.55 SE 38.25 SE No 0.000 No Precipitation 05/15/2019 05:59 AM 05/15/2019 06:04 AM 0.000 0.004 0.008 0.039 0.039 Not Reported Not Reported
05/15/2019 04:30 PM 52.88 48.92 45.32 61.88 50.72 75.0 Not Reported 26.62 SE 29.53 SE 33.33 SE No 0.000 No Precipitation 05/15/2019 05:59 AM 05/15/2019 06:04 AM 0.000 0.004 0.008 0.039 0.039 Not Reported Not Reported
05/15/2019 04:45 PM 54.14 50.54 47.48 61.88 50.72 77.0 Not Reported 25.28 SE 23.26 S 31.99 SE No 0.000 No Precipitation 05/15/2019 05:59 AM 05/15/2019 06:04 AM 0.000 0.004 0.008 0.039 0.039 Not Reported Not Reported
05/15/2019 05:00 PM 54.14 49.82 46.04 61.70 50.72 73.0 Not Reported 29.97 SE 29.75 SE 32.88 SE No 0.000 No Precipitation 05/15/2019 05:59 AM 05/15/2019 06:04 AM 0.000 0.000 0.008 0.039 0.039 Not Reported Not Reported
05/15/2019 05:15 PM 53.96 50.36 47.30 61.52 50.72 78.0 Not Reported 27.51 SE 28.63 SE 33.55 SE No 0.000 No Precipitation 05/15/2019 05:59 AM 05/15/2019 06:04 AM 0.000 0.000 0.004 0.039 0.039 Not Reported Not Reported
05/15/2019 05:30 PM 55.22 51.26 48.02 61.52 50.72 76.0 Not Reported 22.59 SE 24.38 SE 30.87 SE No 0.000 No Precipitation 05/15/2019 05:59 AM 05/15/2019 06:04 AM 0.000 0.000 0.004 0.039 0.039 Not Reported Not Reported
05/15/2019 05:45 PM 55.04 50.54 46.58 61.34 50.72 73.0 Not Reported 26.40 SE 27.29 SE 34.23 SE No 0.000 No Precipitation 05/15/2019 05:59 AM 05/15/2019 06:04 AM 0.000 0.000 0.004 0.039 0.039 Not Reported Not Reported
05/15/2019 06:00 PM 53.24 49.46 46.04 61.34 50.72 76.0 Not Reported 28.19 SE 25.95 SE 35.34 SE No 0.000 No Precipitation 05/15/2019 05:59 AM 05/15/2019 06:04 AM 0.000 0.000 0.004 0.039 0.039 Not Reported Not Reported
05/15/2019 06:15 PM 53.42 49.82 46.58 61.34 50.72 77.0 Not Reported 27.07 SE 21.03 SE 32.88 SE No 0.000 No Precipitation 05/15/2019 05:59 AM 05/15/2019 06:04 AM 0.000 0.000 0.004 0.039 0.039 Not Reported Not Reported
05/15/2019 06:30 PM 53.60 50.00 46.76 61.34 50.72 77.0 Not Reported 18.79 SE 22.37 SE 28.86 SE No 0.000 No Precipitation 05/15/2019 05:59 AM 05/15/2019 06:04 AM 0.000 0.000 0.004 0.039 0.039 Not Reported Not Reported
05/15/2019 06:45 PM 52.34 49.10 46.40 61.34 50.72 80.0 Not Reported 24.16 SE 27.29 SE 28.86 SE No 0.000 No Precipitation 05/15/2019 05:59 AM 05/15/2019 06:04 AM 0.000 0.000 0.004 0.039 0.039 Not Reported Not Reported
05/15/2019 07:00 PM 52.52 48.92 45.86 60.80 50.72 77.0 Not Reported 24.61 SE 24.61 SE 29.75 SE No 0.000 No Precipitation 05/15/2019 05:59 AM 05/15/2019 06:04 AM 0.000 0.000 0.004 0.039 0.039 Not Reported Not Reported
05/15/2019 07:15 PM 52.16 48.74 45.86 60.80 50.72 78.0 Not Reported 18.57 SE 21.03 SE 32.21 SE No 0.000 No Precipitation 05/15/2019 05:59 AM 05/15/2019 06:04 AM 0.000 0.000 0.004 0.039 0.039 Not Reported Not Reported
05/15/2019 07:30 PM 51.98 48.74 45.68 60.80 50.72 78.0 Not Reported 19.91 SE 18.12 SE 27.29 SE No 0.000 No Precipitation 05/15/2019 05:59 AM 05/15/2019 06:04 AM 0.000 0.000 0.004 0.039 0.039 Not Reported Not Reported
05/15/2019 07:45 PM 51.80 48.38 45.32 60.80 50.72 78.0 Not Reported 21.25 SE 20.80 SE 22.37 SE No 0.000 No Precipitation 05/15/2019 05:59 AM 05/15/2019 06:04 AM 0.000 0.000 0.004 0.039 0.039 Not Reported Not Reported
05/15/2019 08:00 PM 51.44 48.38 45.50 60.80 50.72 80.0 Not Reported 19.69 SE 21.47 SE 27.29 S No 0.000 No Precipitation 05/15/2019 05:59 AM 05/15/2019 06:04 AM 0.000 0.000 0.000 0.039 0.039 Not Reported Not Reported
05/15/2019 08:15 PM 50.90 48.20 45.68 60.80 50.72 82.0 Not Reported 20.13 SE 16.78 SE 26.17 SE No 0.000 No Precipitation 05/15/2019 05:59 AM 05/15/2019 06:04 AM 0.000 0.000 0.000 0.039 0.039 Not Reported Not Reported
05/15/2019 08:30 PM 50.54 47.84 45.32 60.80 50.36 82.0 Not Reported 18.57 SE 19.24 SE 24.83 SE No 0.000 No Precipitation 05/15/2019 12:15 PM 05/15/2019 12:20 PM 0.004 0.004 0.004 0.043 0.043 Not Reported Not Reported
05/15/2019 08:45 PM 50.36 48.02 45.86 60.80 50.18 84.0 Not Reported 13.20 SE 12.75 S 23.04 SE No 0.000 No Precipitation 05/15/2019 12:38 PM 05/15/2019 12:43 PM 0.008 0.008 0.008 0.051 0.051 Not Reported Not Reported
05/15/2019 09:00 PM 50.18 47.84 45.86 60.44 49.82 84.0 Not Reported 14.54 S 12.53 S 17.22 SE No 0.000 No Precipitation 05/15/2019 12:55 PM 05/15/2019 01:00 PM 0.016 0.016 0.016 0.059 0.059 Not Reported Not Reported
05/15/2019 09:15 PM 50.18 47.84 45.68 60.08 49.82 84.0 Not Reported 16.33 S 15.43 S 18.34 SE Yes 0.043 Rain Slight 05/15/2019 01:08 PM   0.028 0.028 0.028 0.071 0.071 Not Reported Not Reported
05/15/2019 09:30 PM 50.18 47.84 45.68 59.90 49.82 84.0 Not Reported 22.82 SE 22.59 SE 29.08 S Yes 0.085 Rain Moderate 05/15/2019 01:08 PM   0.039 0.039 0.039 0.083 0.083 Not Reported Not Reported
05/15/2019 09:45 PM 50.00 47.84 45.86 59.54 49.82 85.0 Not Reported 23.71 S 19.46 SE 27.29 SE Yes 0.043 Rain Slight 05/15/2019 01:08 PM   0.043 0.055 0.055 0.083 0.098 Not Reported Not Reported
05/15/2019 10:00 PM 50.00 47.66 45.68 59.18 49.82 84.0 Not Reported 22.82 SE 19.69 SE 26.40 S Yes 0.085 Rain Moderate 05/15/2019 01:08 PM   0.059 0.075 0.075 0.091 0.118 Not Reported Not Reported
05/15/2019 10:15 PM 49.46 47.30 45.32 58.82 49.46 85.0 Not Reported 19.46 SE 18.57 SE 26.84 SE Yes 0.085 Rain Moderate 05/15/2019 01:08 PM   0.067 0.091 0.091 0.102 0.138 Not Reported Not Reported
05/15/2019 10:30 PM 49.10 46.76 44.60 58.46 48.92 84.0 Not Reported 19.69 SE 20.58 SE 22.82 SE Yes 0.085 Rain Moderate 05/15/2019 01:08 PM   0.071 0.110 0.110 0.122 0.157 Not Reported Not Reported
05/15/2019 10:45 PM 48.74 46.04 43.34 58.28 48.56 81.0 Not Reported 25.50 SE 23.94 S 23.26 S Yes 0.128 Rain Moderate 05/15/2019 01:08 PM   0.091 0.150 0.150 0.157 0.189 Not Reported Not Reported
05/15/2019 11:00 PM 48.20 46.04 44.06 57.92 48.02 85.0 Not Reported 19.46 SE 18.57 S 24.16 S Yes 0.128 Rain Moderate 05/15/2019 01:08 PM   0.102 0.181 0.181 0.185 0.224 Not Reported Not Reported
05/15/2019 11:15 PM 48.02 45.86 43.88 57.92 47.84 85.0 Not Reported 21.70 SE 19.01 SE 24.16 SE Yes 0.128 Rain Moderate 05/15/2019 01:08 PM   0.126 0.220 0.220 0.224 0.264 Not Reported Not Reported
05/15/2019 11:30 PM 48.02 46.04 44.06 57.92 47.84 86.0 Not Reported 22.37 SE 21.03 S 24.83 SE Yes 0.128 Rain Moderate 05/15/2019 01:08 PM   0.138 0.244 0.252 0.256 0.295 Not Reported Not Reported
05/15/2019 11:45 PM 47.66 45.50 43.34 57.92 47.66 84.0 Not Reported 18.34 SE 17.90 S 23.94 SE Yes 0.043 Rain Slight 05/15/2019 01:08 PM   0.122 0.264 0.272 0.276 0.315 Not Reported Not Reported